Time;durP1;ratioP1;P1;durP2;ratioP2;P2;SDS_P1;SDS_P2;PMS_P1;PMS_P2;Temp;Humidity;BMP_temperature;BMP_pressure;BME280_temperature;BME280_humidity;BME280_pressure;Samples;Min_cycle;Max_cycle;Signal;HPM_P1;HPM_P2
2022/07/15 00:01:45;;;;;;;3.58;1.58;;;;;;;;;;5036730;28;20211;-86
2022/07/15 00:04:13;;;;;;;1.47;1.40;;;;;;;;;;5038270;28;20235;-85
2022/07/15 00:06:40;;;;;;;1.30;1.20;;;;;;;;;;5040698;28;20203;-85
2022/07/15 00:09:08;;;;;;;2.87;1.90;;;;;;;;;;5040946;28;20245;-85
2022/07/15 00:11:35;;;;;;;1.60;1.50;;;;;;;;;;5041600;28;20233;-85
2022/07/15 00:14:13;;;;;;;1.90;1.40;;;;;;;;;;5043522;28;20239;-86
2022/07/15 00:16:40;;;;;;;4.73;1.90;;;;;;;;;;5042189;28;20205;-86
2022/07/15 00:19:07;;;;;;;2.73;1.67;;;;;;;;;;5040721;28;20277;-86
2022/07/15 00:21:34;;;;;;;1.43;1.33;;;;;;;;;;5041037;28;20651;-85
2022/07/15 00:24:02;;;;;;;3.37;1.77;;;;;;;;;;5040299;28;20235;-85
2022/07/15 00:26:30;;;;;;;1.73;1.53;;;;;;;;;;5040786;28;20206;-87
2022/07/15 00:28:57;;;;;;;1.83;1.73;;;;;;;;;;5039804;28;20336;-87
2022/07/15 00:31:24;;;;;;;1.47;1.37;;;;;;;;;;5043636;28;20203;-85
2022/07/15 00:33:51;;;;;;;2.93;1.60;;;;;;;;;;5041738;28;20254;-87
2022/07/15 00:36:18;;;;;;;2.80;1.70;;;;;;;;;;5040881;28;20213;-86
2022/07/15 00:38:45;;;;;;;1.83;1.50;;;;;;;;;;5039752;28;20345;-87
2022/07/15 00:41:13;;;;;;;3.33;2.10;;;;;;;;;;5041215;28;20234;-86
2022/07/15 00:43:42;;;;;;;3.50;1.60;;;;;;;;;;5039617;28;20234;-86
2022/07/15 00:46:09;;;;;;;2.63;2.00;;;;;;;;;;5041880;28;20207;-86
2022/07/15 00:48:37;;;;;;;1.60;1.50;;;;;;;;;;5040561;28;21009;-86
2022/07/15 00:51:04;;;;;;;5.73;1.80;;;;;;;;;;5039941;28;20203;-87
2022/07/15 00:53:32;;;;;;;2.10;2.00;;;;;;;;;;5041193;28;20230;-85
2022/07/15 00:56:01;;;;;;;1.93;1.70;;;;;;;;;;5041240;28;20680;-86
2022/07/15 00:58:28;;;;;;;4.33;2.00;;;;;;;;;;5040830;28;20317;-84
2022/07/15 01:00:58;;;;;;;6.13;1.73;;;;;;;;;;5035936;28;20230;-86
2022/07/15 01:03:27;;;;;;;2.73;1.90;;;;;;;;;;5039262;28;20313;-86
2022/07/15 01:05:56;;;;;;;2.50;1.57;;;;;;;;;;5038257;28;20203;-85
2022/07/15 01:08:23;;;;;;;6.00;1.80;;;;;;;;;;5025299;28;20239;-85
2022/07/15 01:10:50;;;;;;;2.20;1.70;;;;;;;;;;5022517;28;20207;-86
2022/07/15 01:13:18;;;;;;;3.20;1.80;;;;;;;;;;5021785;28;20238;-86
2022/07/15 01:15:45;;;;;;;1.97;1.70;;;;;;;;;;5028821;28;20204;-87
2022/07/15 01:18:13;;;;;;;2.80;1.60;;;;;;;;;;5021546;28;20239;-86
2022/07/15 01:20:42;;;;;;;2.53;1.60;;;;;;;;;;5021724;28;20244;-86
2022/07/15 01:23:09;;;;;;;5.90;2.00;;;;;;;;;;5019506;28;20257;-86
2022/07/15 01:25:36;;;;;;;3.50;1.87;;;;;;;;;;5018934;28;20215;-86
2022/07/15 01:28:03;;;;;;;2.27;1.60;;;;;;;;;;5019580;28;20246;-86
2022/07/15 01:30:30;;;;;;;1.80;1.57;;;;;;;;;;5019674;28;20210;-85
2022/07/15 01:32:57;;;;;;;1.53;1.43;;;;;;;;;;5018249;28;22257;-85
2022/07/15 01:35:24;;;;;;;3.60;2.00;;;;;;;;;;5017923;28;20302;-85
2022/07/15 01:37:53;;;;;;;3.43;1.97;;;;;;;;;;5014293;28;20331;-86
2022/07/15 01:40:20;;;;;;;2.90;1.80;;;;;;;;;;5014337;28;20227;-85
2022/07/15 01:42:47;;;;;;;3.83;1.83;;;;;;;;;;5016342;28;20700;-86
2022/07/15 01:45:21;;;;;;;3.53;1.73;;;;;;;;;;5019695;28;20223;-85
2022/07/15 01:47:49;;;;;;;3.60;1.80;;;;;;;;;;5019693;28;20714;-84
2022/07/15 01:50:16;;;;;;;2.87;2.07;;;;;;;;;;5020465;28;20212;-85
2022/07/15 01:52:43;;;;;;;6.70;1.70;;;;;;;;;;5018972;28;20592;-85
2022/07/15 01:55:12;;;;;;;2.00;1.50;;;;;;;;;;5019624;28;20231;-86
2022/07/15 01:57:39;;;;;;;3.07;2.10;;;;;;;;;;5018946;28;20207;-86
2022/07/15 02:00:08;;;;;;;1.70;1.60;;;;;;;;;;5026918;28;20199;-85
2022/07/15 02:02:35;;;;;;;2.00;1.80;;;;;;;;;;5044350;28;20215;-85
2022/07/15 02:05:21;;;;;;;1.60;1.50;;;;;;;;;;5035142;28;20227;-86
2022/07/15 02:07:48;;;;;;;2.90;2.00;;;;;;;;;;5027738;28;20270;-87
2022/07/15 02:10:17;;;;;;;1.90;1.70;;;;;;;;;;5038199;28;20571;-86
2022/07/15 02:12:44;;;;;;;3.30;1.70;;;;;;;;;;5047335;28;20211;-85
2022/07/15 02:15:11;;;;;;;2.37;1.70;;;;;;;;;;5034042;28;20203;-85
2022/07/15 02:17:38;;;;;;;2.27;1.80;;;;;;;;;;5033951;28;20217;-86
2022/07/15 02:20:06;;;;;;;1.80;1.70;;;;;;;;;;5071078;23;20602;-87
2022/07/15 02:22:33;;;;;;;1.73;1.63;;;;;;;;;;5055169;28;20735;-87
2022/07/15 02:25:01;;;;;;;1.77;1.67;;;;;;;;;;5074818;28;20234;-87
2022/07/15 02:27:29;;;;;;;5.40;2.00;;;;;;;;;;5075081;28;20254;-88
2022/07/15 02:29:57;;;;;;;2.73;1.93;;;;;;;;;;5075117;28;20336;-87
2022/07/15 02:32:24;;;;;;;1.73;1.60;;;;;;;;;;5075953;28;20220;-87
2022/07/15 02:34:51;;;;;;;2.63;2.07;;;;;;;;;;5076232;28;20237;-87
2022/07/15 02:37:18;;;;;;;5.10;2.10;;;;;;;;;;5077292;28;20205;-87
2022/07/15 02:39:45;;;;;;;2.00;1.90;;;;;;;;;;5079591;28;20315;-88
2022/07/15 02:42:12;;;;;;;2.00;1.80;;;;;;;;;;5079948;28;20228;-87
2022/07/15 02:44:41;;;;;;;2.47;2.10;;;;;;;;;;5078505;28;20233;-87
2022/07/15 02:47:08;;;;;;;5.57;2.20;;;;;;;;;;5078195;28;20201;-87
2022/07/15 02:49:35;;;;;;;2.27;2.07;;;;;;;;;;5078189;28;20243;-87
2022/07/15 02:52:03;;;;;;;2.27;2.07;;;;;;;;;;5078347;28;20227;-87
2022/07/15 02:54:30;;;;;;;2.17;2.00;;;;;;;;;;5077233;28;20240;-88
2022/07/15 02:56:57;;;;;;;4.13;1.97;;;;;;;;;;5078225;28;20209;-88
2022/07/15 02:59:24;;;;;;;3.33;2.10;;;;;;;;;;5077086;28;20248;-88
2022/07/15 03:01:52;;;;;;;3.40;1.90;;;;;;;;;;5078154;28;20225;-88
2022/07/15 03:04:19;;;;;;;2.03;1.90;;;;;;;;;;5080843;28;20237;-87
2022/07/15 03:06:46;;;;;;;2.20;1.97;;;;;;;;;;5095149;28;20211;-88
2022/07/15 03:09:14;;;;;;;1.83;1.73;;;;;;;;;;5094264;28;20241;-87
2022/07/15 03:11:41;;;;;;;2.67;1.73;;;;;;;;;;5095095;28;20211;-89
2022/07/15 03:14:11;;;;;;;2.43;1.93;;;;;;;;;;5093869;28;20267;-87
2022/07/15 03:16:38;;;;;;;2.10;1.97;;;;;;;;;;5094565;28;20212;-88
2022/07/15 03:19:07;;;;;;;2.20;2.00;;;;;;;;;;5093647;28;20239;-91
2022/07/15 03:21:34;;;;;;;2.80;1.97;;;;;;;;;;5084448;28;20498;-87
2022/07/15 03:24:01;;;;;;;2.67;2.23;;;;;;;;;;5080972;28;20239;-88
2022/07/15 03:26:29;;;;;;;2.50;2.20;;;;;;;;;;5081429;28;20212;-89
2022/07/15 03:28:57;;;;;;;2.70;1.93;;;;;;;;;;5078499;28;20720;-88
2022/07/15 03:31:24;;;;;;;2.07;1.97;;;;;;;;;;5078790;28;20541;-87
2022/07/15 03:33:51;;;;;;;3.00;2.03;;;;;;;;;;5079015;28;20323;-88
2022/07/15 03:36:20;;;;;;;4.00;2.23;;;;;;;;;;5079316;28;20202;-87
2022/07/15 03:38:49;;;;;;;3.37;1.50;;;;;;;;;;5079911;28;20233;-88
2022/07/15 03:41:16;;;;;;;3.37;2.20;;;;;;;;;;5083781;28;20220;-89
2022/07/15 03:43:43;;;;;;;3.10;2.00;;;;;;;;;;5082437;28;20240;-88
2022/07/15 03:46:10;;;;;;;3.27;1.93;;;;;;;;;;5082491;28;20216;-88
2022/07/15 03:48:37;;;;;;;2.40;2.07;;;;;;;;;;5082937;28;20267;-88
2022/07/15 03:51:05;;;;;;;3.77;2.23;;;;;;;;;;5070310;28;20555;-88
2022/07/15 03:53:33;;;;;;;4.63;2.37;;;;;;;;;;5061247;28;20264;-89
2022/07/15 03:56:00;;;;;;;1.83;1.73;;;;;;;;;;5059077;28;20205;-88
2022/07/15 03:58:27;;;;;;;2.37;2.17;;;;;;;;;;5058281;28;20425;-87
2022/07/15 04:00:55;;;;;;;2.20;2.10;;;;;;;;;;5058732;28;20209;-88
2022/07/15 04:03:22;;;;;;;2.80;2.20;;;;;;;;;;5052369;28;20306;-88
2022/07/15 04:05:49;;;;;;;2.50;2.30;;;;;;;;;;5040335;28;20210;-86
2022/07/15 04:08:16;;;;;;;2.23;2.13;;;;;;;;;;5048352;28;20236;-87
2022/07/15 04:10:45;;;;;;;2.30;2.10;;;;;;;;;;5062010;28;20205;-87
2022/07/15 04:13:12;;;;;;;3.90;1.90;;;;;;;;;;5061981;28;20229;-87
2022/07/15 04:15:39;;;;;;;2.03;1.93;;;;;;;;;;5057160;28;20185;-85
2022/07/15 04:18:06;;;;;;;3.07;1.80;;;;;;;;;;5075301;28;20230;-85
2022/07/15 04:20:33;;;;;;;3.57;2.17;;;;;;;;;;5077381;28;20214;-89
2022/07/15 04:23:01;;;;;;;2.80;1.93;;;;;;;;;;5073890;28;20320;-87
2022/07/15 04:25:29;;;;;;;2.07;1.90;;;;;;;;;;5074510;28;20214;-87
2022/07/15 04:27:58;;;;;;;4.27;2.40;;;;;;;;;;5075488;28;20220;-85
2022/07/15 04:30:27;;;;;;;2.43;2.23;;;;;;;;;;5057975;28;20227;-83
2022/07/15 04:32:56;;;;;;;2.23;2.07;;;;;;;;;;5053503;28;20223;-84
2022/07/15 04:35:25;;;;;;;3.10;2.10;;;;;;;;;;5055552;28;20194;-94
2022/07/15 04:37:52;;;;;;;4.37;2.03;;;;;;;;;;5067325;28;20269;-89
2022/07/15 04:40:19;;;;;;;2.37;2.13;;;;;;;;;;5074613;28;20236;-89
2022/07/15 04:42:47;;;;;;;2.20;2.00;;;;;;;;;;5064079;28;20270;-88
2022/07/15 04:45:16;;;;;;;2.47;2.20;;;;;;;;;;5066702;28;20198;-88
2022/07/15 04:47:43;;;;;;;2.10;2.00;;;;;;;;;;5057293;28;20210;-88
2022/07/15 04:52:56;;;;;;;3.33;2.00;;;;;;;;;;5074151;28;20340;-89
2022/07/15 04:55:23;;;;;;;2.30;2.10;;;;;;;;;;5074895;28;20205;-88
2022/07/15 04:57:50;;;;;;;7.73;2.13;;;;;;;;;;5071697;28;20213;-86
2022/07/15 05:00:18;;;;;;;2.50;1.87;;;;;;;;;;5080720;28;20245;-83
2022/07/15 05:02:45;;;;;;;2.03;1.83;;;;;;;;;;5060039;28;20254;-87
2022/07/15 05:05:13;;;;;;;2.63;2.03;;;;;;;;;;5057477;28;20211;-85
2022/07/15 05:07:40;;;;;;;4.90;2.30;;;;;;;;;;5056617;28;20205;-86
2022/07/15 05:10:08;;;;;;;2.00;1.90;;;;;;;;;;5072212;28;20288;-83
2022/07/15 05:12:35;;;;;;;3.17;2.40;;;;;;;;;;5073604;28;20668;-92
2022/07/15 05:15:02;;;;;;;3.60;2.00;;;;;;;;;;5060094;28;20206;-86
2022/07/15 05:17:31;;;;;;;2.20;2.07;;;;;;;;;;5060493;28;20188;-84
2022/07/15 05:19:58;;;;;;;2.53;2.20;;;;;;;;;;5057590;28;20258;-87
2022/07/15 05:22:25;;;;;;;3.87;2.43;;;;;;;;;;5055998;28;20272;-84
2022/07/15 05:24:55;;;;;;;2.20;2.00;;;;;;;;;;5064590;28;20646;-85
2022/07/15 05:27:22;;;;;;;2.13;1.80;;;;;;;;;;5059972;28;20191;-83
2022/07/15 05:29:49;;;;;;;2.30;2.10;;;;;;;;;;5060454;28;20236;-83
2022/07/15 05:32:16;;;;;;;2.40;2.10;;;;;;;;;;5056470;28;20710;-87
2022/07/15 05:34:45;;;;;;;3.80;1.97;;;;;;;;;;5055468;28;20237;-88
2022/07/15 05:37:12;;;;;;;3.50;2.00;;;;;;;;;;5052722;28;20208;-89
2022/07/15 05:39:53;;;;;;;3.93;2.30;;;;;;;;;;5054207;28;20229;-85
2022/07/15 05:42:20;;;;;;;3.73;2.40;;;;;;;;;;5093268;28;20223;-86
2022/07/15 05:44:47;;;;;;;2.80;2.53;;;;;;;;;;5094622;28;20226;-91
2022/07/15 05:47:14;;;;;;;2.47;2.17;;;;;;;;;;5095706;28;20227;-92
2022/07/15 05:49:42;;;;;;;4.80;2.17;;;;;;;;;;5094395;28;20300;-89
2022/07/15 05:52:10;;;;;;;3.63;2.60;;;;;;;;;;5094562;28;20247;-91
2022/07/15 05:54:37;;;;;;;2.80;2.20;;;;;;;;;;5094634;28;20267;-93
2022/07/15 05:57:05;;;;;;;2.17;2.03;;;;;;;;;;5095897;28;20206;-88
2022/07/15 05:59:32;;;;;;;3.60;2.17;;;;;;;;;;5095458;28;20253;-87
2022/07/15 06:02:00;;;;;;;2.50;2.30;;;;;;;;;;5094060;28;20316;-92
2022/07/15 06:04:27;;;;;;;2.77;2.20;;;;;;;;;;5094547;28;20296;-91
2022/07/15 06:06:54;;;;;;;2.30;2.10;;;;;;;;;;5094540;28;20213;-87
2022/07/15 06:09:23;;;;;;;4.67;2.40;;;;;;;;;;5093892;28;20239;-87
2022/07/15 06:11:51;;;;;;;6.30;2.83;;;;;;;;;;5095061;28;20209;-92
2022/07/15 06:14:18;;;;;;;4.13;2.13;;;;;;;;;;5095136;28;20237;-90
2022/07/15 06:16:45;;;;;;;8.97;2.20;;;;;;;;;;5096179;28;20207;-87
2022/07/15 06:19:12;;;;;;;4.80;2.07;;;;;;;;;;5096320;28;20217;-94
2022/07/15 06:21:40;;;;;;;2.77;1.80;;;;;;;;;;5095861;28;20280;-94
2022/07/15 06:24:07;;;;;;;2.17;1.90;;;;;;;;;;5094581;28;20370;-90
2022/07/15 06:26:37;;;;;;;3.50;2.00;;;;;;;;;;5094607;28;20378;-91
2022/07/15 06:29:05;;;;;;;3.57;1.80;;;;;;;;;;5094409;28;20236;-89
2022/07/15 06:31:33;;;;;;;4.00;2.00;;;;;;;;;;5095391;28;20204;-92
2022/07/15 06:34:00;;;;;;;1.80;1.70;;;;;;;;;;5093887;28;20292;-92
2022/07/15 06:36:27;;;;;;;3.23;1.50;;;;;;;;;;5095065;28;20188;-86
2022/07/15 06:38:55;;;;;;;2.13;1.67;;;;;;;;;;5093522;28;20243;-86
2022/07/15 06:41:22;;;;;;;3.30;1.70;;;;;;;;;;5093579;28;20222;-89
2022/07/15 06:43:51;;;;;;;4.07;1.87;;;;;;;;;;5090275;28;20300;-92
2022/07/15 06:46:18;;;;;;;2.33;1.53;;;;;;;;;;5093762;28;20182;-86
2022/07/15 06:48:45;;;;;;;2.07;1.30;;;;;;;;;;5093031;28;20229;-91
2022/07/15 06:51:13;;;;;;;1.83;1.20;;;;;;;;;;5078154;28;20206;-82
2022/07/15 06:53:40;;;;;;;1.67;1.40;;;;;;;;;;5067989;28;20242;-82
2022/07/15 06:56:08;;;;;;;2.43;1.67;;;;;;;;;;5066123;28;20863;-83
2022/07/15 06:58:36;;;;;;;1.43;1.30;;;;;;;;;;5067066;28;20301;-88
2022/07/15 07:01:05;;;;;;;3.63;1.33;;;;;;;;;;5066923;28;20742;-83
2022/07/15 07:03:35;;;;;;;1.93;1.30;;;;;;;;;;5066803;28;20294;-82
2022/07/15 07:06:02;;;;;;;3.10;1.37;;;;;;;;;;5065533;28;20186;-82
2022/07/15 07:08:30;;;;;;;2.70;1.20;;;;;;;;;;5064764;28;20293;-88
2022/07/15 07:10:57;;;;;;;3.30;1.70;;;;;;;;;;5066916;28;20288;-83
2022/07/15 07:13:24;;;;;;;3.75;1.30;;;;;;;;;;5067813;28;20451;-82
2022/07/15 07:15:51;;;;;;;2.22;1.25;;;;;;;;;;5069799;28;20339;-88
2022/07/15 07:18:20;;;;;;;1.90;1.17;;;;;;;;;;5071213;28;20249;-79
2022/07/15 07:20:50;;;;;;;1.48;1.27;;;;;;;;;;5066532;28;20616;-86
2022/07/15 07:23:18;;;;;;;3.92;1.15;;;;;;;;;;5069609;28;20248;-84
2022/07/15 07:25:45;;;;;;;1.92;1.80;;;;;;;;;;5068384;28;20233;-80
2022/07/15 07:28:13;;;;;;;2.78;1.13;;;;;;;;;;5067083;28;20233;-84
2022/07/15 07:30:41;;;;;;;2.45;1.27;;;;;;;;;;5068526;28;20217;-87
2022/07/15 07:33:08;;;;;;;4.35;1.38;;;;;;;;;;5068864;28;20320;-85
2022/07/15 07:35:37;;;;;;;1.85;1.00;;;;;;;;;;5069140;28;20210;-83
2022/07/15 07:38:04;;;;;;;1.52;1.10;;;;;;;;;;5070332;28;20230;-85
2022/07/15 07:40:31;;;;;;;2.38;1.20;;;;;;;;;;5068644;28;20214;-84
2022/07/15 07:42:59;;;;;;;3.17;1.30;;;;;;;;;;5066126;28;20229;-84
2022/07/15 07:45:28;;;;;;;1.55;1.13;;;;;;;;;;5064283;28;20209;-83
2022/07/15 07:47:55;;;;;;;3.25;0.95;;;;;;;;;;5064343;28;20295;-81
2022/07/15 07:50:22;;;;;;;1.33;1.10;;;;;;;;;;5065758;28;20257;-83
2022/07/15 07:52:51;;;;;;;3.60;1.05;;;;;;;;;;5062349;28;20241;-82
2022/07/15 07:55:18;;;;;;;3.80;1.10;;;;;;;;;;5068269;28;20214;-86
2022/07/15 07:57:50;;;;;;;3.85;1.00;;;;;;;;;;5069141;28;20281;-82
2022/07/15 08:00:17;;;;;;;1.08;0.98;;;;;;;;;;5075831;28;20226;-89
2022/07/15 08:02:45;;;;;;;4.95;1.10;;;;;;;;;;5069593;28;20209;-87
2022/07/15 08:05:12;;;;;;;1.75;1.20;;;;;;;;;;5065783;28;20229;-83
2022/07/15 08:07:40;;;;;;;2.85;1.63;;;;;;;;;;5065661;28;20335;-87
2022/07/15 08:10:10;;;;;;;1.23;1.00;;;;;;;;;;5065265;28;20224;-86
2022/07/15 08:12:38;;;;;;;4.82;1.10;;;;;;;;;;5066613;28;20222;-86
2022/07/15 08:15:05;;;;;;;1.70;1.05;;;;;;;;;;5063744;28;20263;-82
2022/07/15 08:17:32;;;;;;;1.52;1.00;;;;;;;;;;5066049;28;20539;-83
2022/07/15 08:19:59;;;;;;;8.05;1.50;;;;;;;;;;5064748;28;20229;-83
2022/07/15 08:22:27;;;;;;;4.40;1.40;;;;;;;;;;5065897;28;20208;-85
2022/07/15 08:24:54;;;;;;;2.50;1.05;;;;;;;;;;5064523;28;20249;-85
2022/07/15 08:27:22;;;;;;;2.17;1.00;;;;;;;;;;5066605;28;20210;-88
2022/07/15 08:29:49;;;;;;;1.17;1.10;;;;;;;;;;5067196;28;20313;-84
2022/07/15 08:32:17;;;;;;;3.33;0.98;;;;;;;;;;5068222;28;20250;-85
2022/07/15 08:34:44;;;;;;;2.45;1.10;;;;;;;;;;5060512;28;20297;-85
2022/07/15 08:37:12;;;;;;;2.45;1.15;;;;;;;;;;5084247;28;20208;-84
2022/07/15 08:39:39;;;;;;;1.42;1.10;;;;;;;;;;5080101;28;20233;-83
2022/07/15 08:42:07;;;;;;;1.75;0.95;;;;;;;;;;5082844;28;20202;-85
2022/07/15 08:44:37;;;;;;;2.67;1.23;;;;;;;;;;5081597;28;20263;-85
2022/07/15 08:47:05;;;;;;;1.38;0.90;;;;;;;;;;5079690;28;20232;-84
2022/07/15 08:49:34;;;;;;;1.85;0.77;;;;;;;;;;5077899;28;20241;-87
2022/07/15 08:52:03;;;;;;;7.40;1.00;;;;;;;;;;5079976;28;20236;-84
2022/07/15 08:54:32;;;;;;;1.17;1.08;;;;;;;;;;5079069;28;20661;-88
2022/07/15 08:56:59;;;;;;;1.60;1.10;;;;;;;;;;5065942;28;20210;-85
2022/07/15 08:59:26;;;;;;;2.70;1.20;;;;;;;;;;5062781;28;20238;-84
2022/07/15 09:01:55;;;;;;;2.75;1.10;;;;;;;;;;5062355;28;20217;-84
2022/07/15 09:04:22;;;;;;;2.45;1.08;;;;;;;;;;5062666;28;20706;-87
2022/07/15 09:06:50;;;;;;;0.82;0.82;;;;;;;;;;5062631;28;20217;-84
2022/07/15 09:09:24;;;;;;;1.20;1.05;;;;;;;;;;5059680;28;20554;-84
2022/07/15 09:11:56;;;;;;;2.85;1.10;;;;;;;;;;5062443;28;20201;-90
2022/07/15 09:14:23;;;;;;;3.22;1.27;;;;;;;;;;5059337;28;20233;-85
2022/07/15 09:16:50;;;;;;;4.10;1.35;;;;;;;;;;5059350;28;20240;-84
2022/07/15 09:19:19;;;;;;;1.73;1.17;;;;;;;;;;5058700;28;20236;-83
2022/07/15 09:22:01;;;;;;;1.90;1.30;;;;;;;;;;5060070;28;20210;-84
2022/07/15 09:24:29;;;;;;;1.98;1.00;;;;;;;;;;5061786;28;20233;-94
2022/07/15 09:26:56;;;;;;;2.58;1.27;;;;;;;;;;5069378;28;20269;-90
2022/07/15 09:36:01;;;;;;;3.53;1.30;;;;;;;;;;5088625;28;20262;-88
2022/07/15 09:37:58;;;;;;;3.85;1.20;;;;;;;;;;5088374;28;20255;-84
2022/07/15 09:40:27;;;;;;;2.53;1.27;;;;;;;;;;5088180;28;20225;-87
2022/07/15 09:43:04;;;;;;;3.65;1.38;;;;;;;;;;5090902;28;20445;-86
2022/07/15 09:45:31;;;;;;;1.48;1.23;;;;;;;;;;5085381;28;20216;-87
2022/07/15 09:48:06;;;;;;;1.13;1.10;;;;;;;;;;5083275;28;20233;-88
2022/07/15 09:50:35;;;;;;;1.60;1.50;;;;;;;;;;5084655;28;20201;-82
2022/07/15 09:53:04;;;;;;;2.17;1.20;;;;;;;;;;5078738;28;20256;-84
2022/07/15 09:55:32;;;;;;;1.20;1.10;;;;;;;;;;5078763;28;20209;-83
2022/07/15 09:58:00;;;;;;;4.00;1.20;;;;;;;;;;5080892;28;20240;-83
2022/07/15 10:00:28;;;;;;;2.55;1.25;;;;;;;;;;5078932;28;20303;-83
2022/07/15 10:02:55;;;;;;;1.65;1.55;;;;;;;;;;5079440;28;20237;-83
2022/07/15 10:05:22;;;;;;;2.38;1.25;;;;;;;;;;5081220;28;20208;-82
2022/07/15 10:10:28;;;;;;;1.50;1.33;;;;;;;;;;5023450;28;20218;-81
2022/07/15 10:12:58;;;;;;;3.28;1.55;;;;;;;;;;5032061;28;20238;-80
2022/07/15 10:15:31;;;;;;;1.38;1.27;;;;;;;;;;5033556;28;20213;-80
2022/07/15 10:18:05;;;;;;;2.60;1.48;;;;;;;;;;5021096;28;20239;-80
2022/07/15 10:20:42;;;;;;;1.70;1.38;;;;;;;;;;5013349;28;20212;-79
2022/07/15 10:23:15;;;;;;;1.30;1.13;;;;;;;;;;5017356;28;20230;-80
2022/07/15 10:25:57;;;;;;;2.25;1.60;;;;;;;;;;5033287;28;20191;-80
2022/07/15 10:28:26;;;;;;;2.05;1.60;;;;;;;;;;5025923;28;20241;-80
2022/07/15 10:31:07;;;;;;;2.78;1.38;;;;;;;;;;5013942;28;20204;-80
2022/07/15 10:33:34;;;;;;;2.42;1.38;;;;;;;;;;5020218;28;20241;-81
2022/07/15 10:36:06;;;;;;;2.70;1.63;;;;;;;;;;5022915;28;20211;-80
2022/07/15 10:38:34;;;;;;;1.60;1.50;;;;;;;;;;5013203;28;20242;-79
2022/07/15 10:41:09;;;;;;;3.95;1.90;;;;;;;;;;5012779;28;20436;-79
2022/07/15 10:43:40;;;;;;;2.20;1.42;;;;;;;;;;5012629;28;20230;-79
2022/07/15 10:46:19;;;;;;;4.93;1.58;;;;;;;;;;5013680;28;20223;-79
2022/07/15 10:48:46;;;;;;;2.45;1.63;;;;;;;;;;5014333;28;20338;-79
2022/07/15 10:51:14;;;;;;;1.90;1.40;;;;;;;;;;5011302;28;20191;-80
2022/07/15 10:53:45;;;;;;;1.75;1.40;;;;;;;;;;5010949;28;20243;-79
2022/07/15 10:56:26;;;;;;;2.13;1.40;;;;;;;;;;5002328;28;20571;-78
2022/07/15 10:59:09;;;;;;;1.45;1.35;;;;;;;;;;5002765;28;20326;-79
2022/07/15 11:01:37;;;;;;;3.28;1.67;;;;;;;;;;5011407;28;20248;-79
2022/07/15 11:04:15;;;;;;;3.20;1.65;;;;;;;;;;5011295;28;20238;-79
2022/07/15 11:07:00;;;;;;;1.50;1.40;;;;;;;;;;5012055;28;20206;-79
2022/07/15 11:09:44;;;;;;;2.17;1.98;;;;;;;;;;5011622;28;20250;-79
2022/07/15 11:12:12;;;;;;;4.80;2.22;;;;;;;;;;5012724;28;20234;-79
2022/07/15 11:14:48;;;;;;;1.75;1.50;;;;;;;;;;5012908;28;20271;-81
2022/07/15 11:17:17;;;;;;;1.75;1.33;;;;;;;;;;5016836;28;20206;-81
2022/07/15 11:19:47;;;;;;;2.22;1.60;;;;;;;;;;5014029;28;20726;-83
2022/07/15 11:22:14;;;;;;;2.38;1.52;;;;;;;;;;5014759;28;20195;-81
2022/07/15 11:24:41;;;;;;;3.40;1.80;;;;;;;;;;5020290;28;20237;-80
2022/07/15 11:27:09;;;;;;;2.00;1.80;;;;;;;;;;5033749;28;20230;-83
2022/07/15 11:29:43;;;;;;;2.80;1.75;;;;;;;;;;5034428;28;20235;-80
2022/07/15 11:32:12;;;;;;;2.85;1.80;;;;;;;;;;5033529;28;20191;-80
2022/07/15 11:34:43;;;;;;;2.08;1.48;;;;;;;;;;5032593;28;20710;-80
2022/07/15 11:37:11;;;;;;;2.35;1.60;;;;;;;;;;5035260;28;20309;-81
2022/07/15 11:39:38;;;;;;;2.22;1.20;;;;;;;;;;5034583;28;20238;-81
2022/07/15 11:44:51;;;;;;;1.80;1.30;;;;;;;;;;5034787;28;20720;-80
2022/07/15 11:47:19;;;;;;;1.60;1.50;;;;;;;;;;5035890;28;20202;-81
2022/07/15 11:49:46;;;;;;;3.97;1.50;;;;;;;;;;5034871;28;20243;-81
2022/07/15 11:52:22;;;;;;;2.00;1.38;;;;;;;;;;5034624;28;20210;-80
2022/07/15 11:54:49;;;;;;;2.45;1.70;;;;;;;;;;5032364;28;20318;-81
2022/07/15 11:57:18;;;;;;;3.20;1.65;;;;;;;;;;5034591;28;20215;-80
2022/07/15 11:59:52;;;;;;;2.72;1.63;;;;;;;;;;5034028;28;20779;-81
2022/07/15 12:02:20;;;;;;;1.65;1.48;;;;;;;;;;5037834;28;20215;-80
2022/07/15 12:04:47;;;;;;;1.80;1.70;;;;;;;;;;5037312;28;20238;-81
2022/07/15 12:07:15;;;;;;;2.67;1.45;;;;;;;;;;5038477;28;20195;-81
2022/07/15 12:09:42;;;;;;;3.03;1.85;;;;;;;;;;5035268;28;20245;-80
2022/07/15 12:12:09;;;;;;;2.67;1.65;;;;;;;;;;5037008;28;20554;-80
2022/07/15 12:14:36;;;;;;;1.80;1.60;;;;;;;;;;5036449;28;20599;-82
2022/07/15 12:17:04;;;;;;;3.65;1.90;;;;;;;;;;5036448;28;20231;-84
2022/07/15 12:19:33;;;;;;;2.65;1.77;;;;;;;;;;5031929;28;20593;-82
2022/07/15 12:22:02;;;;;;;1.70;1.60;;;;;;;;;;5015017;28;20260;-83
2022/07/15 12:24:37;;;;;;;1.45;1.35;;;;;;;;;;5014219;28;20245;-82
2022/07/15 12:27:04;;;;;;;2.90;1.63;;;;;;;;;;5024069;28;20286;-82
2022/07/15 12:29:32;;;;;;;2.35;1.77;;;;;;;;;;5034785;28;20242;-81
2022/07/15 12:32:00;;;;;;;3.70;1.88;;;;;;;;;;5036578;28;20206;-82
2022/07/15 12:34:42;;;;;;;3.08;1.80;;;;;;;;;;5016482;28;20237;-82
2022/07/15 12:37:11;;;;;;;2.70;1.80;;;;;;;;;;5038120;28;20217;-81
2022/07/15 12:39:53;;;;;;;1.90;1.80;;;;;;;;;;5038208;28;20357;-81
2022/07/15 12:42:20;;;;;;;2.08;1.90;;;;;;;;;;5038010;28;20211;-82
2022/07/15 12:44:47;;;;;;;2.72;1.63;;;;;;;;;;5038179;28;20233;-82
2022/07/15 12:47:17;;;;;;;3.80;1.70;;;;;;;;;;5018443;28;20203;-81
2022/07/15 12:49:46;;;;;;;2.50;1.80;;;;;;;;;;5017678;28;20243;-82
2022/07/15 12:52:19;;;;;;;1.63;1.52;;;;;;;;;;5017720;28;20218;-81
2022/07/15 12:54:47;;;;;;;3.05;2.00;;;;;;;;;;5016893;28;20237;-81
2022/07/15 12:57:21;;;;;;;1.73;1.52;;;;;;;;;;5017933;28;20211;-81
2022/07/15 12:59:52;;;;;;;1.70;1.60;;;;;;;;;;5016087;28;20341;-81
2022/07/15 13:02:19;;;;;;;2.08;1.83;;;;;;;;;;5016530;28;20695;-81
2022/07/15 13:04:46;;;;;;;2.60;1.60;;;;;;;;;;5017322;28;20613;-81
2022/07/15 13:07:13;;;;;;;3.80;1.73;;;;;;;;;;5022650;28;20219;-81
2022/07/15 13:09:41;;;;;;;2.78;2.00;;;;;;;;;;5018782;28;20242;-82
2022/07/15 13:12:09;;;;;;;2.75;1.70;;;;;;;;;;5019779;28;20326;-81
2022/07/15 13:14:36;;;;;;;2.15;1.85;;;;;;;;;;5019596;28;20246;-81
2022/07/15 13:17:03;;;;;;;1.65;1.50;;;;;;;;;;5019837;28;20212;-80
2022/07/15 13:19:30;;;;;;;1.70;1.60;;;;;;;;;;5018825;28;20745;-81
2022/07/15 13:21:57;;;;;;;1.73;1.60;;;;;;;;;;5019668;28;20222;-80
2022/07/15 13:24:24;;;;;;;2.70;1.50;;;;;;;;;;5019050;28;20234;-80
2022/07/15 13:26:53;;;;;;;2.35;1.63;;;;;;;;;;5020160;28;20207;-81
2022/07/15 13:29:20;;;;;;;1.95;1.75;;;;;;;;;;5020090;28;20293;-81
2022/07/15 13:31:47;;;;;;;2.80;2.42;;;;;;;;;;5018830;28;20200;-80
2022/07/15 13:34:14;;;;;;;2.80;1.60;;;;;;;;;;5017382;28;20238;-80
2022/07/15 13:36:41;;;;;;;2.45;1.48;;;;;;;;;;5030905;28;20207;-80
2022/07/15 13:39:08;;;;;;;1.67;1.55;;;;;;;;;;5030782;28;20581;-80
2022/07/15 13:41:35;;;;;;;2.22;1.70;;;;;;;;;;5021426;28;20203;-82
2022/07/15 13:44:04;;;;;;;3.45;1.75;;;;;;;;;;5017614;28;20235;-80
2022/07/15 13:46:31;;;;;;;3.25;1.67;;;;;;;;;;5013809;28;20226;-81
2022/07/15 13:48:58;;;;;;;1.85;1.70;;;;;;;;;;5013777;28;20246;-80
2022/07/15 13:51:24;;;;;;;2.67;1.70;;;;;;;;;;5013781;28;20208;-80
2022/07/15 13:53:52;;;;;;;3.00;1.50;;;;;;;;;;5013517;28;20309;-81
2022/07/15 13:56:19;;;;;;;5.35;1.88;;;;;;;;;;5015513;28;20266;-81
2022/07/15 13:58:47;;;;;;;4.55;1.73;;;;;;;;;;5014758;28;20718;-80
2022/07/15 14:01:16;;;;;;;1.92;1.70;;;;;;;;;;5016404;28;20273;-81
2022/07/15 14:03:43;;;;;;;2.13;1.73;;;;;;;;;;5054313;28;20237;-81
2022/07/15 14:06:11;;;;;;;1.40;1.30;;;;;;;;;;5064791;28;20229;-81
2022/07/15 14:08:38;;;;;;;2.67;1.40;;;;;;;;;;5056631;28;20247;-80
2022/07/15 14:11:05;;;;;;;1.92;1.55;;;;;;;;;;5058370;28;20206;-83
2022/07/15 14:13:32;;;;;;;3.03;1.60;;;;;;;;;;5023707;28;20718;-84
2022/07/15 14:15:59;;;;;;;5.43;1.40;;;;;;;;;;5029389;28;20215;-82
2022/07/15 14:21:15;;;;;;;2.00;1.35;;;;;;;;;;5030022;28;20213;-81
2022/07/15 14:23:43;;;;;;;1.92;1.73;;;;;;;;;;5035041;28;20674;-82
2022/07/15 14:26:10;;;;;;;3.13;1.77;;;;;;;;;;5034013;28;20679;-82
2022/07/15 14:28:37;;;;;;;1.98;1.60;;;;;;;;;;5034330;28;20242;-81
2022/07/15 14:31:05;;;;;;;2.05;1.60;;;;;;;;;;5032854;28;20589;-82
2022/07/15 14:33:34;;;;;;;4.00;1.63;;;;;;;;;;5019340;28;20228;-82
2022/07/15 14:36:02;;;;;;;2.15;1.50;;;;;;;;;;5029994;28;20226;-83
2022/07/15 14:38:31;;;;;;;2.85;1.60;;;;;;;;;;5033210;28;20261;-83
2022/07/15 14:40:58;;;;;;;1.70;1.48;;;;;;;;;;5023086;28;20213;-82
2022/07/15 14:43:26;;;;;;;3.35;1.50;;;;;;;;;;5021618;28;20235;-82
2022/07/15 14:45:53;;;;;;;4.80;1.70;;;;;;;;;;5024626;28;20660;-83
2022/07/15 14:48:20;;;;;;;1.95;1.35;;;;;;;;;;5019056;28;20231;-83
2022/07/15 14:50:49;;;;;;;2.25;1.45;;;;;;;;;;5019462;28;20238;-84
2022/07/15 14:53:16;;;;;;;2.03;1.38;;;;;;;;;;5027063;28;20285;-84
2022/07/15 14:55:43;;;;;;;1.73;1.63;;;;;;;;;;5026323;28;20242;-84
2022/07/15 14:58:18;;;;;;;2.97;1.65;;;;;;;;;;5014973;28;20242;-82
2022/07/15 15:00:45;;;;;;;2.28;1.50;;;;;;;;;;5032778;28;20198;-83
2022/07/15 15:03:14;;;;;;;2.35;1.38;;;;;;;;;;5034140;28;20698;-83
2022/07/15 15:05:41;;;;;;;1.50;1.40;;;;;;;;;;5033955;28;20199;-84
2022/07/15 15:08:10;;;;;;;1.77;1.60;;;;;;;;;;5034073;28;20249;-83